Fincastle, Texas
Current Conditions -  °F | °C
As of 2:15 PM on Wednesday 26 Nov 2014 (Local Time) from KPSN Reporting Station
Clear Clear  
Wind Chill: 66°   Ceiling: Unl
Heat Index: 66°   Visibility: 10mi
Dew Point: 32°   Wind: 13mph
Humidity: 28%   Direction: 270°W
Pressure: 30.17"   Gusts: NA
Location:  32.0056°N, 95.5543°W
Report Text: KPSN 262015Z AUTO 27011KT 10SM CLR 18/00 A3017 RMK AO2 T01880000
Loading
Personal Weather Stations






























Interactive Weather Map New forecast layout! Learn more

10-Day Weather Forecast

Advertisements
Track Severe Weather on mobile